Time;durP1;ratioP1;P1;durP2;ratioP2;P2;SDS_P1;SDS_P2;PMS_P1;PMS_P2;Temp;Humidity;BMP_temperature;BMP_pressure;BME280_temperature;BME280_humidity;BME280_pressure;Samples;Min_cycle;Max_cycle;Signal;HPM_P1;HPM_P2
2022/12/29 00:02:04;;;;;;;7.20;2.72;;;0.40;99.90;;;;;;5111841;28;20455;-78
2022/12/29 00:04:30;;;;;;;6.57;3.45;;;0.40;99.90;;;;;;5137220;27;20019;-78
2022/12/29 00:06:56;;;;;;;8.77;2.28;;;0.40;99.90;;;;;;5119968;28;20469;-77
2022/12/29 00:09:22;;;;;;;7.20;3.08;;;0.40;99.90;;;;;;5112306;28;20069;-77
2022/12/29 00:11:49;;;;;;;8.63;2.65;;;0.40;99.90;;;;;;5111861;28;20024;-76
2022/12/29 00:16:59;;;;;;;4.03;1.88;;;0.30;99.90;;;;;;5111701;28;19910;-77
2022/12/29 00:36:32;;;;;;;4.35;1.60;;;0.30;99.90;;;;;;5104021;28;20034;-77
2022/12/29 00:44:33;;;;;;;10.77;2.55;;;0.20;99.90;;;;;;5109323;28;20038;-77
2022/12/29 00:47:04;;;;;;;4.47;1.95;;;0.20;99.90;;;;;;5117682;28;20035;-77
2022/12/29 00:49:32;;;;;;;3.63;1.33;;;0.20;99.90;;;;;;5115563;28;20024;-78
2022/12/29 00:52:05;;;;;;;3.50;1.95;;;0.30;99.90;;;;;;5115936;28;20464;-78
2022/12/29 00:54:33;;;;;;;3.47;2.53;;;0.30;99.90;;;;;;5114840;28;20024;-79
2022/12/29 00:57:01;;;;;;;5.97;2.65;;;0.20;99.90;;;;;;5098553;28;20027;-79
2022/12/29 00:59:27;;;;;;;3.58;1.55;;;0.30;99.90;;;;;;5112651;28;20012;-78
2022/12/29 01:01:54;;;;;;;9.18;2.00;;;0.20;99.90;;;;;;5111963;28;20103;-79
2022/12/29 01:04:21;;;;;;;3.05;1.35;;;0.20;99.90;;;;;;5117120;27;20023;-78
2022/12/29 01:06:47;;;;;;;2.95;1.45;;;0.20;99.90;;;;;;5107632;28;20179;-79
2022/12/29 01:11:58;;;;;;;8.15;2.35;;;0.20;99.90;;;;;;5110884;28;20035;-78
2022/12/29 01:14:24;;;;;;;3.58;2.47;;;0.20;99.90;;;;;;5115088;28;20396;-77
2022/12/29 01:16:51;;;;;;;3.85;1.80;;;0.20;99.90;;;;;;5115108;28;20051;-77
2022/12/29 01:19:17;;;;;;;4.00;1.73;;;0.20;99.90;;;;;;5115249;28;20548;-79
2022/12/29 01:21:43;;;;;;;2.47;1.48;;;0.10;99.90;;;;;;5115386;28;20173;-78
2022/12/29 01:24:09;;;;;;;6.03;1.40;;;0.20;99.90;;;;;;5115670;28;20369;-78
2022/12/29 01:26:35;;;;;;;7.78;2.53;;;0.20;99.90;;;;;;5101050;28;20024;-77
2022/12/29 01:29:01;;;;;;;4.57;2.33;;;0.20;99.90;;;;;;5113970;28;20027;-78
2022/12/29 01:31:27;;;;;;;6.22;2.30;;;0.20;99.90;;;;;;5097131;28;20020;-80
2022/12/29 01:33:53;;;;;;;6.03;2.58;;;0.20;99.90;;;;;;5115440;28;20043;-78
2022/12/29 01:36:19;;;;;;;4.22;1.85;;;0.20;99.90;;;;;;5101471;28;20028;-79
2022/12/29 01:38:45;;;;;;;4.90;1.83;;;0.20;99.90;;;;;;5116288;28;20448;-80
2022/12/29 01:41:13;;;;;;;7.30;2.45;;;0.10;99.90;;;;;;5114407;28;20139;-78
2022/12/29 01:43:47;;;;;;;10.95;2.53;;;0.10;99.90;;;;;;5114173;28;20044;-79
2022/12/29 01:46:26;;;;;;;5.88;2.35;;;0.10;99.90;;;;;;5106438;28;20032;-77
2022/12/29 01:48:57;;;;;;;9.48;3.13;;;0.10;99.90;;;;;;5108314;28;20048;-78
2022/12/29 01:51:25;;;;;;;4.10;2.00;;;0.10;99.90;;;;;;5113081;28;20074;-79
2022/12/29 01:53:52;;;;;;;4.68;1.98;;;0.00;99.90;;;;;;5107263;28;20115;-78
2022/12/29 01:56:19;;;;;;;;;;;0.00;99.90;;;;;;5113294;28;20032;-77
2022/12/29 01:58:48;;;;;;;7.18;2.00;;;0.00;99.90;;;;;;5114649;28;20084;-79
2022/12/29 02:01:18;;;;;;;3.80;2.67;;;0.00;99.90;;;;;;5112751;28;20389;-78
2022/12/29 02:03:43;;;;;;;5.05;2.17;;;0.00;99.90;;;;;;5124219;28;20031;-79
2022/12/29 02:06:22;;;;;;;4.35;2.00;;;0.00;99.90;;;;;;5115578;28;20020;-78
2022/12/29 02:08:50;;;;;;;10.38;3.22;;;0.00;99.90;;;;;;5096075;28;20030;-79
2022/12/29 02:11:17;;;;;;;6.63;2.20;;;-0.10;99.90;;;;;;5095842;28;20026;-78
2022/12/29 02:13:43;;;;;;;3.88;2.13;;;-0.10;99.90;;;;;;5115094;28;20051;-79
2022/12/29 02:16:38;;;;;;;8.65;2.90;;;-0.10;99.90;;;;;;5098142;28;20023;-79
2022/12/29 02:19:28;;;;;;;8.70;2.60;;;-0.10;99.90;;;;;;5113901;28;20036;-78
2022/12/29 02:21:59;;;;;;;5.35;2.20;;;-0.10;99.90;;;;;;5111932;28;20480;-79
2022/12/29 02:24:56;;;;;;;9.55;3.10;;;-0.10;99.90;;;;;;5113426;28;20457;-80
2022/12/29 02:27:44;;;;;;;4.95;2.42;;;-0.20;99.90;;;;;;5113672;28;20022;-78
2022/12/29 02:30:37;;;;;;;6.95;2.75;;;-0.10;99.90;;;;;;5113372;28;20008;-78
2022/12/29 02:33:16;;;;;;;6.03;2.47;;;-0.10;99.90;;;;;;5113466;28;20027;-79
2022/12/29 02:36:04;;;;;;;5.60;2.50;;;-0.10;99.90;;;;;;5113462;28;20020;-79
2022/12/29 02:38:57;;;;;;;14.32;3.55;;;-0.10;99.90;;;;;;5077165;28;20027;-78
2022/12/29 02:41:37;;;;;;;5.00;2.10;;;-0.20;99.90;;;;;;5106988;28;20027;-80
2022/12/29 02:44:42;;;;;;;10.82;2.75;;;-0.30;99.90;;;;;;5101630;28;20028;-78
2022/12/29 02:47:31;;;;;;;5.53;2.05;;;-0.30;99.90;;;;;;5112209;28;20014;-79
2022/12/29 02:50:08;;;;;;;8.93;2.70;;;-0.40;99.90;;;;;;5103908;28;20032;-80
2022/12/29 02:52:49;;;;;;;3.88;2.28;;;-0.40;99.90;;;;;;5113283;28;20110;-80
2022/12/29 02:55:15;;;;;;;3.47;2.40;;;-0.40;99.90;;;;;;5087350;28;20027;-79
2022/12/29 02:57:41;;;;;;;6.78;2.85;;;-0.40;99.90;;;;;;5094813;28;20012;-79
2022/12/29 03:00:14;;;;;;;6.93;2.90;;;-0.50;99.90;;;;;;5110935;28;20028;-81
2022/12/29 03:02:55;;;;;;;10.90;2.67;;;-0.40;99.90;;;;;;5111628;28;20119;-79
2022/12/29 03:05:35;;;;;;;4.53;2.67;;;-0.50;99.90;;;;;;5113668;28;20024;-78
2022/12/29 03:08:36;;;;;;;5.03;2.13;;;-0.50;99.90;;;;;;5121188;28;20027;-79
2022/12/29 03:17:16;;;;;;;6.40;3.08;;;-0.70;99.90;;;;;;5112455;28;20132;-77
2022/12/29 03:19:47;;;;;;;8.63;2.40;;;-0.80;99.90;;;;;;5100418;28;20376;-78
2022/12/29 03:22:27;;;;;;;11.00;3.65;;;-0.90;99.90;;;;;;5094454;28;20256;-77
2022/12/29 03:25:25;;;;;;;12.38;2.97;;;-0.90;99.90;;;;;;5101680;28;20408;-79
2022/12/29 03:28:20;;;;;;;7.07;2.95;;;-0.90;99.90;;;;;;5109782;28;20049;-77
2022/12/29 03:30:46;;;;;;;11.25;4.38;;;-1.00;99.90;;;;;;5108907;28;20031;-78
2022/12/29 03:33:16;;;;;;;4.93;3.00;;;-1.00;99.90;;;;;;5094201;28;20100;-78
2022/12/29 03:35:44;;;;;;;9.95;3.47;;;-1.00;99.90;;;;;;5112339;28;20445;-78
2022/12/29 03:38:19;;;;;;;7.13;2.20;;;-1.10;99.90;;;;;;5112260;28;20027;-78
2022/12/29 03:40:49;;;;;;;10.55;2.38;;;-1.10;99.90;;;;;;5112245;28;20072;-78
2022/12/29 03:43:16;;;;;;;8.48;2.95;;;-1.10;99.90;;;;;;5112690;28;20102;-78
2022/12/29 03:45:42;;;;;;;9.63;2.70;;;-1.20;99.90;;;;;;5096127;28;20024;-78
2022/12/29 03:48:08;;;;;;;7.60;3.05;;;-1.20;99.90;;;;;;5111944;28;20016;-78
2022/12/29 03:50:34;;;;;;;5.32;2.30;;;-1.20;99.90;;;;;;5112104;28;20476;-78
2022/12/29 03:53:00;;;;;;;6.80;2.30;;;-1.20;99.90;;;;;;5111959;28;20051;-79
2022/12/29 03:55:26;;;;;;;6.63;2.88;;;-1.20;99.90;;;;;;5109394;28;20072;-78
2022/12/29 03:57:51;;;;;;;6.10;3.10;;;-1.10;99.90;;;;;;5098852;28;20059;-79
2022/12/29 04:00:17;;;;;;;8.60;2.50;;;-1.20;99.90;;;;;;5089233;28;20020;-77
2022/12/29 04:02:43;;;;;;;5.57;2.28;;;-1.20;99.90;;;;;;5126960;28;20004;-80
2022/12/29 04:05:09;;;;;;;6.55;2.65;;;-1.30;99.90;;;;;;5117934;28;20390;-77
2022/12/29 04:07:35;;;;;;;5.90;2.30;;;-1.30;99.90;;;;;;5094250;28;20020;-78
2022/12/29 04:10:01;;;;;;;6.38;2.92;;;-1.30;99.90;;;;;;5112414;28;20073;-77
2022/12/29 04:12:27;;;;;;;5.53;2.33;;;-1.30;99.90;;;;;;5111978;28;20036;-77
2022/12/29 04:14:52;;;;;;;12.15;2.85;;;-1.40;99.90;;;;;;5107926;28;20053;-79
2022/12/29 04:17:19;;;;;;;5.57;2.75;;;-1.40;99.90;;;;;;5116289;28;20361;-79
2022/12/29 04:19:45;;;;;;;10.70;2.78;;;-1.40;99.90;;;;;;5116554;28;20027;-80
2022/12/29 04:22:11;;;;;;;5.28;2.53;;;-1.40;99.90;;;;;;5116368;28;20023;-78
2022/12/29 04:24:37;;;;;;;5.60;2.83;;;-1.40;99.90;;;;;;5115732;28;20488;-78
2022/12/29 04:27:03;;;;;;;6.57;2.25;;;-1.30;99.90;;;;;;5116349;28;20048;-78
2022/12/29 04:29:29;;;;;;;10.48;3.78;;;-1.30;99.90;;;;;;5116186;28;20090;-79
2022/12/29 04:31:55;;;;;;;8.82;2.50;;;-1.30;99.90;;;;;;5114415;28;20027;-78
2022/12/29 04:34:21;;;;;;;11.48;3.80;;;-1.40;99.90;;;;;;5115726;28;20089;-79
2022/12/29 04:36:47;;;;;;;7.85;3.40;;;-1.30;99.90;;;;;;5097873;28;20023;-79
2022/12/29 04:39:13;;;;;;;8.18;2.60;;;-1.30;99.90;;;;;;5115620;28;20035;-79
2022/12/29 04:41:39;;;;;;;7.00;3.90;;;-1.30;99.90;;;;;;5115941;28;20357;-80
2022/12/29 04:44:04;;;;;;;8.73;3.05;;;-1.30;99.90;;;;;;5116179;28;20023;-79
2022/12/29 04:46:30;;;;;;;9.57;3.10;;;-1.30;99.90;;;;;;5118887;28;20020;-79
2022/12/29 04:48:56;;;;;;;6.03;3.45;;;-1.30;99.90;;;;;;5117473;28;20024;-78
2022/12/29 04:51:25;;;;;;;7.25;3.35;;;-1.30;99.90;;;;;;5114733;28;20011;-79
2022/12/29 04:53:51;;;;;;;4.65;3.40;;;-1.30;99.90;;;;;;5115701;28;20039;-79
2022/12/29 04:56:16;;;;;;;9.32;2.92;;;-1.30;99.90;;;;;;5115451;28;20385;-78
2022/12/29 04:58:42;;;;;;;6.97;3.15;;;-1.30;99.90;;;;;;5115286;28;20032;-79
2022/12/29 05:01:08;;;;;;;5.13;2.92;;;-1.30;99.90;;;;;;5115225;28;20036;-81
2022/12/29 05:03:34;;;;;;;14.27;4.05;;;-1.30;99.90;;;;;;5108044;28;20046;-80
2022/12/29 05:06:00;;;;;;;10.82;3.40;;;-1.40;99.90;;;;;;5115331;28;20027;-80
2022/12/29 05:08:26;;;;;;;5.95;3.15;;;-1.40;99.90;;;;;;5115196;28;20496;-78
2022/12/29 05:10:52;;;;;;;7.65;3.67;;;-1.40;99.90;;;;;;5115168;28;20058;-78
2022/12/29 05:13:18;;;;;;;9.68;3.53;;;-1.40;99.90;;;;;;5117527;28;20114;-79
2022/12/29 05:15:51;;;;;;;10.38;3.97;;;-1.40;99.90;;;;;;5114809;28;20031;-79
2022/12/29 05:18:17;;;;;;;7.30;3.28;;;-1.40;99.90;;;;;;5115035;28;20024;-78
2022/12/29 05:20:43;;;;;;;7.88;3.60;;;-1.40;99.90;;;;;;5114724;28;20024;-80
2022/12/29 05:23:09;;;;;;;11.40;4.72;;;-1.40;99.90;;;;;;5115145;28;20152;-79
2022/12/29 05:25:35;;;;;;;9.60;3.65;;;-1.40;99.90;;;;;;5114473;28;20118;-79
2022/12/29 05:28:05;;;;;;;5.88;3.63;;;-1.40;99.90;;;;;;5114664;28;20504;-79
2022/12/29 05:30:31;;;;;;;8.10;3.60;;;-1.50;99.90;;;;;;5096551;28;20026;-78
2022/12/29 05:32:56;;;;;;;7.93;4.28;;;-1.50;99.90;;;;;;5115752;28;20027;-78
2022/12/29 05:35:22;;;;;;;4.40;2.97;;;-1.50;99.90;;;;;;5111731;28;20027;-79
2022/12/29 05:37:48;;;;;;;7.28;4.07;;;-1.50;99.90;;;;;;5114713;28;20039;-79
2022/12/29 05:40:14;;;;;;;10.07;3.92;;;-1.60;99.90;;;;;;5096706;28;20020;-79
2022/12/29 05:42:40;;;;;;;8.50;4.35;;;-1.60;99.90;;;;;;5114853;28;20468;-79
2022/12/29 05:45:07;;;;;;;17.08;4.95;;;-1.60;99.90;;;;;;5114214;28;20034;-78
2022/12/29 05:47:33;;;;;;;12.18;4.78;;;-1.60;99.90;;;;;;5114719;28;20045;-81
2022/12/29 05:49:59;;;;;;;12.80;5.13;;;-1.50;99.90;;;;;;5113131;28;20069;-80
2022/12/29 05:52:24;;;;;;;9.38;4.22;;;-1.40;99.90;;;;;;5114273;28;20024;-78
2022/12/29 05:54:50;;;;;;;8.15;4.18;;;-1.40;99.90;;;;;;5114712;28;20043;-78
2022/12/29 05:57:16;;;;;;;10.30;5.00;;;-1.30;99.90;;;;;;5107500;28;20019;-80
2022/12/29 05:59:42;;;;;;;10.85;4.38;;;-1.30;99.90;;;;;;5118625;28;20092;-78
2022/12/29 06:02:09;;;;;;;10.52;3.92;;;-1.40;99.90;;;;;;5117099;28;20430;-81
2022/12/29 06:04:35;;;;;;;4.57;3.70;;;-1.40;99.90;;;;;;5115695;28;20020;-81
2022/12/29 06:07:01;;;;;;;10.63;4.75;;;-1.30;99.90;;;;;;5112596;28;20381;-80
2022/12/29 06:09:27;;;;;;;11.90;3.83;;;-1.30;99.90;;;;;;5114022;28;20024;-81
2022/12/29 06:11:52;;;;;;;4.63;3.42;;;-1.20;99.90;;;;;;5114213;28;20108;-81
2022/12/29 06:14:18;;;;;;;5.95;3.72;;;-1.20;99.90;;;;;;5090645;28;20023;-81
2022/12/29 06:16:44;;;;;;;13.85;4.45;;;-1.20;99.90;;;;;;5114284;28;20172;-80
2022/12/29 06:19:10;;;;;;;11.60;4.32;;;-1.20;99.90;;;;;;5113756;28;20028;-80
2022/12/29 06:21:37;;;;;;;11.05;4.63;;;-1.30;99.90;;;;;;5095199;28;20019;-80
2022/12/29 06:24:04;;;;;;;11.13;4.18;;;-1.30;99.90;;;;;;5113823;28;20034;-79
2022/12/29 06:26:30;;;;;;;8.05;4.50;;;-1.40;99.90;;;;;;5102581;28;20108;-80
2022/12/29 06:28:55;;;;;;;8.73;3.53;;;-1.40;99.90;;;;;;5119313;28;20028;-77
2022/12/29 06:31:21;;;;;;;11.48;4.43;;;-1.50;99.90;;;;;;5097450;28;20031;-81
2022/12/29 06:33:48;;;;;;;7.78;4.38;;;-1.50;99.90;;;;;;5106535;28;20134;-81
2022/12/29 06:36:14;;;;;;;8.77;4.53;;;-1.50;99.90;;;;;;5113178;28;20027;-82
2022/12/29 06:38:40;;;;;;;9.50;3.83;;;-1.50;99.90;;;;;;5113595;28;20024;-84
2022/12/29 06:41:06;;;;;;;4.95;3.95;;;-1.40;99.90;;;;;;5117002;28;20469;-80
2022/12/29 06:43:33;;;;;;;6.20;3.85;;;-1.40;99.90;;;;;;5094102;28;20059;-80
2022/12/29 06:45:59;;;;;;;8.20;3.70;;;-1.40;99.90;;;;;;5113614;28;20016;-77
2022/12/29 06:48:25;;;;;;;6.18;3.90;;;-1.40;99.90;;;;;;5106263;28;20540;-79
2022/12/29 06:50:51;;;;;;;10.57;4.05;;;-1.40;99.90;;;;;;5113043;28;20088;-77
2022/12/29 06:53:16;;;;;;;7.70;3.53;;;-1.30;99.90;;;;;;5113255;28;20031;-78
2022/12/29 06:55:42;;;;;;;9.38;3.88;;;-1.30;99.90;;;;;;5113140;28;20023;-78
2022/12/29 06:58:09;;;;;;;6.65;3.70;;;-1.30;99.90;;;;;;5112998;28;20773;-77
2022/12/29 07:00:35;;;;;;;4.68;4.15;;;-1.30;99.90;;;;;;5112107;28;20022;-79
2022/12/29 07:03:00;;;;;;;8.55;4.18;;;-1.30;99.90;;;;;;5113009;28;20019;-79
2022/12/29 07:05:27;;;;;;;7.75;3.63;;;-1.30;99.90;;;;;;5094673;28;20553;-77
2022/12/29 07:07:54;;;;;;;5.17;3.43;;;-1.30;99.90;;;;;;5112968;28;20380;-77
2022/12/29 07:10:20;;;;;;;5.53;3.90;;;-1.30;99.90;;;;;;5112969;28;20045;-78
2022/12/29 07:12:46;;;;;;;10.07;4.80;;;-1.30;99.90;;;;;;5112736;28;20031;-77
2022/12/29 07:15:14;;;;;;;12.98;5.85;;;-1.30;99.90;;;;;;5113119;28;20084;-77
2022/12/29 07:17:40;;;;;;;14.10;7.13;;;-1.30;99.90;;;;;;5112086;28;20020;-79
2022/12/29 07:20:07;;;;;;;10.02;5.38;;;-1.10;99.90;;;;;;5094674;28;20045;-79
2022/12/29 07:22:33;;;;;;;14.30;4.45;;;-1.10;99.90;;;;;;5113117;28;20030;-78
2022/12/29 07:24:59;;;;;;;17.75;7.30;;;-1.00;99.90;;;;;;5112840;28;20047;-77
2022/12/29 07:27:25;;;;;;;8.23;5.32;;;-0.90;99.90;;;;;;5112843;28;20415;-78
2022/12/29 07:29:51;;;;;;;14.00;7.97;;;-0.90;99.90;;;;;;5113231;28;20046;-78
2022/12/29 07:32:17;;;;;;;16.08;9.48;;;-0.90;99.90;;;;;;5112962;28;20396;-78
2022/12/29 07:34:47;;;;;;;16.65;7.95;;;-0.90;99.90;;;;;;5111691;28;20069;-79
2022/12/29 07:37:15;;;;;;;10.40;7.18;;;-0.80;99.90;;;;;;5112988;28;20501;-78
2022/12/29 07:39:41;;;;;;;19.80;8.45;;;-0.80;99.90;;;;;;5112677;28;20019;-80
2022/12/29 07:42:07;;;;;;;13.23;6.75;;;-0.80;99.90;;;;;;5113728;28;20388;-77
2022/12/29 07:44:32;;;;;;;17.55;7.03;;;-0.70;99.90;;;;;;5114070;28;20028;-77
2022/12/29 07:47:17;;;;;;;12.57;8.30;;;-0.70;99.90;;;;;;5114789;28;20020;-77
2022/12/29 07:50:02;;;;;;;16.95;7.78;;;-0.70;99.90;;;;;;5094414;28;20028;-79
2022/12/29 07:52:47;;;;;;;15.10;7.30;;;-0.60;99.90;;;;;;5113092;28;20051;-78
2022/12/29 07:55:14;;;;;;;11.93;5.75;;;-0.60;99.90;;;;;;5095267;28;20160;-78
2022/12/29 07:57:59;;;;;;;18.10;8.07;;;-0.50;99.90;;;;;;5097897;28;20019;-77
2022/12/29 08:00:44;;;;;;;16.85;7.47;;;-0.40;99.90;;;;;;5104592;28;20038;-79
2022/12/29 08:03:28;;;;;;;11.18;6.50;;;-0.40;99.90;;;;;;5095693;28;20391;-77
2022/12/29 08:05:56;;;;;;;14.90;6.57;;;-0.40;99.90;;;;;;5100924;28;20023;-79
2022/12/29 08:08:40;;;;;;;;;;;-0.50;99.90;;;;;;5114441;28;20028;-80
2022/12/29 08:11:25;;;;;;;17.13;7.68;;;-0.50;99.90;;;;;;5117365;28;19934;-78
2022/12/29 08:13:51;;;;;;;10.23;7.15;;;-0.40;99.90;;;;;;5112405;28;20043;-78
2022/12/29 08:16:35;;;;;;;16.27;6.30;;;-0.50;99.90;;;;;;5094004;28;20019;-78
2022/12/29 08:19:19;;;;;;;15.13;8.00;;;-0.50;99.90;;;;;;5112030;28;20052;-79
2022/12/29 08:21:45;;;;;;;13.48;8.60;;;-0.50;99.90;;;;;;5112297;28;20030;-77
2022/12/29 08:24:30;;;;;;;16.05;8.65;;;-0.50;99.90;;;;;;5110857;28;20048;-78
2022/12/29 08:27:33;;;;;;;18.80;11.70;;;-0.60;99.90;;;;;;5112200;28;20027;-78
2022/12/29 08:30:00;;;;;;;24.90;10.40;;;-0.70;99.90;;;;;;5076720;28;20427;-78
2022/12/29 08:32:44;;;;;;;11.47;7.70;;;-0.80;99.90;;;;;;5104478;28;20032;-78
2022/12/29 08:35:29;;;;;;;14.63;8.68;;;-0.90;99.90;;;;;;5099338;28;20024;-81
2022/12/29 08:38:13;;;;;;;10.57;6.60;;;-0.90;99.90;;;;;;5111911;28;20020;-78
2022/12/29 08:40:39;;;;;;;12.65;7.05;;;-0.80;99.90;;;;;;5094268;28;20391;-80
2022/12/29 08:43:43;;;;;;;16.63;6.72;;;-0.70;99.90;;;;;;5093434;28;20016;-78
2022/12/29 08:46:27;;;;;;;10.15;6.47;;;-0.60;99.90;;;;;;5111953;28;20023;-77
2022/12/29 08:49:30;;;;;;;11.52;6.85;;;-0.60;99.90;;;;;;5099930;28;20084;-77
2022/12/29 08:52:33;;;;;;;16.20;6.93;;;-0.70;99.90;;;;;;5111506;28;20061;-78
2022/12/29 08:55:18;;;;;;;16.60;9.38;;;-0.70;99.90;;;;;;5108253;28;20027;-79
2022/12/29 08:58:02;;;;;;;17.70;8.90;;;-0.80;99.90;;;;;;5110394;28;20034;-77
2022/12/29 09:00:47;;;;;;;15.90;9.63;;;-0.70;99.90;;;;;;5113323;28;20016;-79
2022/12/29 09:03:12;;;;;;;17.50;9.82;;;-0.60;99.90;;;;;;5115801;28;20076;-79
2022/12/29 09:05:57;;;;;;;16.58;9.70;;;-0.60;99.90;;;;;;5115600;28;20051;-80
2022/12/29 09:08:42;;;;;;;20.60;10.90;;;-0.60;99.90;;;;;;5096590;28;20027;-78
2022/12/29 09:11:11;;;;;;;18.27;10.45;;;-0.60;99.90;;;;;;5115321;28;20027;-78
2022/12/29 09:13:56;;;;;;;17.02;10.75;;;-0.70;99.90;;;;;;5115644;28;20110;-79
2022/12/29 09:20:03;;;;;;;20.98;11.65;;;-0.70;99.90;;;;;;5113051;28;20035;-78
2022/12/29 09:22:29;;;;;;;17.70;10.48;;;-0.70;99.90;;;;;;5114986;28;20027;-78
2022/12/29 09:25:14;;;;;;;18.05;10.52;;;-0.80;99.90;;;;;;5100024;28;20381;-81
2022/12/29 09:27:42;;;;;;;22.70;12.65;;;-0.70;99.90;;;;;;5115190;28;20027;-81
2022/12/29 09:30:28;;;;;;;19.38;9.27;;;-0.70;99.90;;;;;;5115035;28;20020;-78
2022/12/29 09:32:54;;;;;;;20.85;12.15;;;-0.70;99.90;;;;;;5095892;28;20039;-79
2022/12/29 09:35:38;;;;;;;24.52;10.70;;;-0.70;99.90;;;;;;5096942;28;20031;-80
2022/12/29 09:38:04;;;;;;;16.08;9.23;;;-0.70;99.90;;;;;;5096683;28;20023;-78
2022/12/29 09:40:49;;;;;;;18.83;10.95;;;-0.70;99.90;;;;;;5116088;28;20023;-79
2022/12/29 09:43:57;;;;;;;16.48;9.75;;;-0.70;99.90;;;;;;5114848;28;20099;-79
2022/12/29 09:46:41;;;;;;;15.35;9.40;;;-0.70;99.90;;;;;;5068797;28;20036;-78
2022/12/29 09:49:32;;;;;;;17.38;9.27;;;-0.70;99.90;;;;;;5096641;28;20118;-79
2022/12/29 09:52:35;;;;;;;21.35;9.73;;;-0.60;99.90;;;;;;5098624;28;20020;-78
2022/12/29 09:55:13;;;;;;;16.02;9.70;;;-0.70;99.90;;;;;;5115483;28;20056;-78
2022/12/29 09:58:00;;;;;;;16.10;9.43;;;-0.60;99.90;;;;;;5120506;28;20034;-78
2022/12/29 10:00:58;;;;;;;15.10;10.05;;;-0.60;99.90;;;;;;5097860;28;20115;-78
2022/12/29 10:04:07;;;;;;;13.65;9.02;;;-0.70;99.90;;;;;;5069042;28;20463;-80
2022/12/29 10:07:10;;;;;;;10.63;8.02;;;-0.70;99.90;;;;;;5091401;28;20040;-79
2022/12/29 10:09:54;;;;;;;17.80;8.32;;;-0.70;99.90;;;;;;5105035;28;20015;-78
2022/12/29 10:12:52;;;;;;;13.90;8.65;;;-0.80;99.90;;;;;;5113182;28;20040;-80
2022/12/29 10:15:47;;;;;;;13.93;8.02;;;-0.80;99.90;;;;;;5114333;28;20035;-80
2022/12/29 10:18:50;;;;;;;18.42;9.65;;;-0.80;99.90;;;;;;5114352;28;20484;-79
2022/12/29 10:21:54;;;;;;;18.23;9.88;;;-0.80;99.90;;;;;;5114279;28;20028;-80
2022/12/29 10:24:21;;;;;;;16.33;10.25;;;-0.80;99.90;;;;;;5109811;28;20519;-79
2022/12/29 10:26:51;;;;;;;15.68;11.35;;;-0.90;99.90;;;;;;5113929;28;20039;-79
2022/12/29 10:29:24;;;;;;;13.55;10.23;;;-0.90;99.90;;;;;;5113559;28;20019;-80
2022/12/29 10:31:59;;;;;;;20.02;12.00;;;-0.80;99.90;;;;;;5113935;28;20034;-79
2022/12/29 10:34:49;;;;;;;18.52;10.88;;;-0.70;99.90;;;;;;5113603;28;20035;-80
2022/12/29 10:37:27;;;;;;;15.00;9.45;;;-0.60;99.90;;;;;;5094649;28;20023;-79
2022/12/29 10:39:55;;;;;;;15.90;10.82;;;-0.60;99.90;;;;;;5113074;28;20077;-78
2022/12/29 10:42:33;;;;;;;14.25;10.13;;;-0.50;99.90;;;;;;5113728;28;20019;-79
2022/12/29 10:45:18;;;;;;;21.08;11.20;;;-0.50;99.90;;;;;;5113885;28;20176;-79
2022/12/29 10:48:06;;;;;;;17.98;11.98;;;-0.50;99.90;;;;;;5113155;28;20030;-79
2022/12/29 10:51:09;;;;;;;24.17;11.43;;;-0.50;99.90;;;;;;5113158;28;20030;-80
2022/12/29 10:54:16;;;;;;;19.60;12.52;;;-0.50;99.90;;;;;;5093686;28;20031;-79
2022/12/29 10:57:27;;;;;;;24.27;12.18;;;-0.50;99.90;;;;;;5060111;28;20045;-81
2022/12/29 11:00:12;;;;;;;24.05;12.70;;;-0.50;99.90;;;;;;5112781;28;20032;-80
2022/12/29 11:03:15;;;;;;;23.50;11.00;;;-0.40;99.90;;;;;;5113369;28;20465;-77
2022/12/29 11:05:59;;;;;;;16.83;11.38;;;-0.30;99.90;;;;;;5107296;28;20603;-78
2022/12/29 11:08:46;;;;;;;20.85;11.13;;;-0.30;99.90;;;;;;5113751;28;20329;-79
2022/12/29 11:11:24;;;;;;;17.80;10.48;;;-0.30;99.90;;;;;;5109053;28;20024;-79
2022/12/29 11:14:12;;;;;;;21.83;12.20;;;-0.30;99.90;;;;;;5114162;28;20042;-80
2022/12/29 11:16:56;;;;;;;12.90;9.15;;;-0.30;99.90;;;;;;5101619;28;20042;-79
2022/12/29 11:19:41;;;;;;;15.75;8.82;;;-0.30;99.90;;;;;;5113485;28;20391;-80
2022/12/29 11:22:28;;;;;;;14.00;8.90;;;-0.40;99.90;;;;;;5113250;28;20076;-78
2022/12/29 11:25:13;;;;;;;22.75;11.43;;;-0.40;99.90;;;;;;5077745;28;20782;-79
2022/12/29 11:27:57;;;;;;;17.48;11.27;;;-0.40;99.90;;;;;;5092248;28;20464;-79
2022/12/29 11:31:01;;;;;;;16.90;8.75;;;-0.40;99.90;;;;;;5093967;28;20109;-80
2022/12/29 11:33:49;;;;;;;16.25;9.65;;;-0.40;99.90;;;;;;5076805;28;20025;-79
2022/12/29 11:36:53;;;;;;;15.43;8.82;;;-0.40;99.90;;;;;;5087300;28;20028;-80
2022/12/29 11:39:37;;;;;;;13.18;8.57;;;-0.40;99.90;;;;;;5090712;28;20020;-81
2022/12/29 11:42:23;;;;;;;16.73;9.90;;;-0.30;99.90;;;;;;5078382;28;20024;-81
2022/12/29 11:44:51;;;;;;;13.43;7.63;;;-0.30;99.90;;;;;;5092093;28;20911;-79
2022/12/29 11:47:42;;;;;;;13.45;7.95;;;-0.20;99.90;;;;;;5092495;28;20103;-79
2022/12/29 11:50:29;;;;;;;15.30;8.85;;;-0.30;99.90;;;;;;5091755;28;20008;-79
2022/12/29 11:53:18;;;;;;;21.60;8.63;;;-0.30;99.90;;;;;;5090723;28;20511;-80
2022/12/29 11:56:01;;;;;;;12.45;8.05;;;-0.30;99.90;;;;;;5094408;28;20028;-80
2022/12/29 11:58:37;;;;;;;12.25;8.35;;;-0.40;99.90;;;;;;5099532;28;20110;-79
2022/12/29 12:01:25;;;;;;;12.20;8.02;;;-0.40;99.90;;;;;;5082485;28;20457;-80
2022/12/29 12:04:13;;;;;;;12.80;7.90;;;-0.50;99.90;;;;;;5092160;28;20043;-80
2022/12/29 12:07:16;;;;;;;11.50;8.15;;;-0.50;99.90;;;;;;5092203;28;20103;-79
2022/12/29 12:10:19;;;;;;;15.05;9.95;;;-0.50;99.90;;;;;;5048284;28;20043;-78
2022/12/29 12:13:23;;;;;;;12.88;7.38;;;-0.50;99.90;;;;;;5091526;28;20063;-80
2022/12/29 12:16:26;;;;;;;19.05;10.82;;;-0.50;99.90;;;;;;5077125;28;20028;-79
2022/12/29 12:18:57;;;;;;;14.55;9.27;;;-0.50;99.90;;;;;;5090582;28;20391;-81
2022/12/29 12:21:46;;;;;;;18.15;9.75;;;-0.50;99.90;;;;;;5091507;28;20021;-80
2022/12/29 12:24:48;;;;;;;26.90;9.30;;;-0.60;99.90;;;;;;5092178;28;20032;-80
2022/12/29 12:27:29;;;;;;;22.50;9.85;;;-0.50;99.90;;;;;;5093825;28;20027;-79
2022/12/29 12:30:28;;;;;;;19.15;11.35;;;-0.50;99.90;;;;;;5111280;28;20028;-80
2022/12/29 12:33:31;;;;;;;18.65;10.75;;;-0.40;99.90;;;;;;5112406;28;20027;-80
2022/12/29 12:36:24;;;;;;;16.08;10.70;;;-0.40;99.90;;;;;;5116161;28;20023;-80
2022/12/29 12:39:27;;;;;;;17.00;10.40;;;-0.30;99.90;;;;;;5084596;28;20056;-79
2022/12/29 12:42:02;;;;;;;19.65;11.10;;;-0.30;99.90;;;;;;5102586;28;20024;-80
2022/12/29 12:44:34;;;;;;;21.92;12.18;;;-0.20;99.90;;;;;;5116172;28;20028;-80
2022/12/29 12:47:02;;;;;;;15.88;10.13;;;-0.10;99.90;;;;;;5108731;28;20023;-78
2022/12/29 12:50:06;;;;;;;16.92;10.93;;;-0.10;99.90;;;;;;5116307;28;20055;-80
2022/12/29 12:53:05;;;;;;;16.27;10.63;;;-0.10;99.90;;;;;;5105848;28;20541;-81
2022/12/29 12:55:56;;;;;;;18.20;10.60;;;-0.10;99.90;;;;;;5102498;28;20016;-80
2022/12/29 12:58:47;;;;;;;21.80;10.93;;;-0.10;99.90;;;;;;5115448;28;20020;-82
2022/12/29 13:01:31;;;;;;;16.73;10.02;;;-0.10;99.90;;;;;;5114793;28;20067;-81
2022/12/29 13:04:15;;;;;;;18.52;10.95;;;-0.10;99.90;;;;;;5083813;28;20031;-82
2022/12/29 13:07:18;;;;;;;24.80;11.48;;;-0.10;99.90;;;;;;5116064;28;20267;-81
2022/12/29 13:10:22;;;;;;;18.05;9.45;;;0.00;99.90;;;;;;5098154;28;20426;-81
2022/12/29 13:13:06;;;;;;;14.52;8.10;;;0.00;99.90;;;;;;5118427;28;20042;-79
2022/12/29 13:16:09;;;;;;;18.55;9.40;;;0.00;99.90;;;;;;5115795;28;20459;-79
2022/12/29 13:19:12;;;;;;;14.80;9.88;;;-0.10;99.90;;;;;;5108646;28;20111;-80
2022/12/29 13:22:02;;;;;;;25.58;10.60;;;-0.10;99.90;;;;;;5102781;28;20012;-80
2022/12/29 13:24:52;;;;;;;19.60;11.15;;;-0.10;99.90;;;;;;5097331;28;20028;-82
2022/12/29 13:27:43;;;;;;;19.02;9.98;;;-0.10;99.90;;;;;;5096673;28;20131;-81
2022/12/29 13:30:19;;;;;;;20.90;10.38;;;0.00;99.90;;;;;;5098181;28;20024;-81
2022/12/29 13:33:13;;;;;;;15.90;10.00;;;0.00;99.90;;;;;;5110447;28;20557;-80
2022/12/29 13:36:16;;;;;;;20.48;12.25;;;0.00;99.90;;;;;;5114230;28;20456;-78
2022/12/29 13:39:20;;;;;;;22.25;11.38;;;0.10;99.90;;;;;;5103201;28;20106;-80
2022/12/29 13:42:05;;;;;;;19.25;10.13;;;0.10;99.90;;;;;;5114817;28;20430;-80
2022/12/29 13:44:56;;;;;;;15.02;9.23;;;0.10;99.90;;;;;;5114824;28;20034;-80
2022/12/29 13:48:00;;;;;;;15.73;9.18;;;0.00;99.90;;;;;;5114425;28;20028;-80
2022/12/29 13:51:03;;;;;;;18.48;9.50;;;0.00;99.90;;;;;;5102473;28;20020;-81
2022/12/29 13:53:50;;;;;;;18.48;9.65;;;-0.10;99.90;;;;;;5110457;28;20035;-79
2022/12/29 13:56:57;;;;;;;16.27;9.57;;;-0.20;99.90;;;;;;5122736;28;20028;-78
2022/12/29 13:59:41;;;;;;;;;;;-0.20;99.90;;;;;;5106564;28;20058;-79
2022/12/29 14:02:36;;;;;;;18.55;11.10;;;-0.20;99.90;;;;;;5115083;28;19907;-79
2022/12/29 14:05:39;;;;;;;18.13;11.68;;;-0.20;99.90;;;;;;5096558;28;20023;-79
2022/12/29 14:08:25;;;;;;;19.63;10.63;;;-0.10;99.90;;;;;;5114262;28;20024;-81
2022/12/29 14:10:51;;;;;;;17.70;11.35;;;-0.10;99.90;;;;;;5093330;28;20020;-78